createdAt,value
2024-02-24T00:03:04.704Z,12.1
2024-02-24T00:08:30.938Z,12.1
2024-02-24T00:14:09.619Z,12.3
2024-02-24T00:19:48.894Z,12.3
2024-02-24T00:25:28.515Z,12.4
2024-02-24T00:31:07.391Z,12.4
2024-02-24T00:36:47.022Z,12.6
2024-02-24T00:42:10.257Z,12.5
2024-02-24T00:47:49.291Z,12.5
2024-02-24T00:53:28.372Z,12.4
2024-02-24T00:58:51.677Z,12.4
2024-02-24T01:04:30.822Z,12.4
2024-02-24T01:10:09.792Z,12.4
2024-02-24T01:15:33.496Z,12.4
2024-02-24T01:21:13.349Z,12.3
2024-02-24T01:26:52.059Z,12.3
2024-02-24T01:32:30.455Z,12.3
2024-02-24T01:38:09.707Z,12.3
2024-02-24T01:43:48.164Z,12.2
2024-02-24T01:49:27.658Z,12.1
2024-02-24T01:55:05.748Z,12.1
2024-02-24T02:00:44.718Z,12.1
2024-02-24T02:06:08.673Z,12.1
2024-02-24T02:11:41.953Z,12
2024-02-24T02:17:11.985Z,12
2024-02-24T02:22:20.591Z,12
2024-02-24T02:27:28.215Z,11.9
2024-02-24T02:33:07.754Z,11.9
2024-02-24T02:38:48.219Z,11.6
2024-02-24T02:44:26.680Z,11.3
2024-02-24T02:50:14.605Z,10.9
2024-02-24T02:55:53.685Z,10.6
2024-02-24T03:01:32.837Z,10.4
2024-02-24T03:06:56.677Z,10.2
2024-02-24T03:12:08.129Z,10
2024-02-24T03:17:15.806Z,9.8
2024-02-24T03:22:55.197Z,9.7
2024-02-24T03:28:33.648Z,9.6
2024-02-24T03:34:13.297Z,9.6
2024-02-24T03:39:51.829Z,9.7
2024-02-24T03:45:30.343Z,9.6
2024-02-24T03:50:39.399Z,9.4
2024-02-24T03:56:18.079Z,9.3
2024-02-24T04:01:57.042Z,9.1
2024-02-24T04:07:35.958Z,8.9
2024-02-24T04:13:15.590Z,8.8
2024-02-24T04:18:55.093Z,8.6
2024-02-24T04:24:33.851Z,8.7
2024-02-24T04:30:12.553Z,8.8
2024-02-24T04:35:52.193Z,8.7
2024-02-24T04:41:31.218Z,8.6
2024-02-24T04:46:54.247Z,8.6
2024-02-24T04:52:18.470Z,8.4
2024-02-24T04:57:41.603Z,8.3
2024-02-24T05:03:04.881Z,8.2
2024-02-24T05:08:28.449Z,8.1
2024-02-24T05:13:52.205Z,7.9
2024-02-24T05:19:16.911Z,7.8
2024-02-24T05:24:24.463Z,7.7
2024-02-24T05:29:50.035Z,7.6
2024-02-24T05:35:18.356Z,7.6
2024-02-24T05:40:43.719Z,7.6
2024-02-24T05:46:06.215Z,7.8
2024-02-24T05:51:30.100Z,8
2024-02-24T05:57:11.415Z,8.1
2024-02-24T06:02:49.953Z,8.4
2024-02-24T06:08:29.977Z,8.6
2024-02-24T06:14:08.660Z,8.8
2024-02-24T06:19:47.874Z,9.1
2024-02-24T06:25:29.323Z,11.6
2024-02-24T06:30:51.985Z,16.4
2024-02-24T06:36:31.675Z,21.6
2024-02-24T06:42:22.225Z,26.7
2024-02-24T06:48:16.674Z,30.8
2024-02-24T06:53:40.505Z,35
2024-02-24T06:59:21.894Z,39
2024-02-24T07:05:00.771Z,34.4
2024-02-24T07:10:39.873Z,31.7
2024-02-24T07:16:19.537Z,30.6
2024-02-24T07:22:00.136Z,29.5
2024-02-24T07:27:42.591Z,28.6
2024-02-24T07:33:22.734Z,27.8
2024-02-24T07:38:32.253Z,27.1
2024-02-24T07:44:11.921Z,26.6
2024-02-24T07:49:35.451Z,27.6
2024-02-24T07:55:14.482Z,28.8
2024-02-24T08:00:54.143Z,35.1
2024-02-24T08:06:33.352Z,43.9
2024-02-24T08:12:14.441Z,42.4
2024-02-24T08:17:37.855Z,39.6
2024-02-24T08:23:01.619Z,40.3
2024-02-24T08:28:40.184Z,41.3
2024-02-24T08:34:19.258Z,38.9
2024-02-24T08:39:43.501Z,36.6
2024-02-24T08:45:06.890Z,33.4
2024-02-24T08:50:45.842Z,32.7
2024-02-24T08:56:38.131Z,33.7
2024-02-24T09:02:16.756Z,33.3
2024-02-24T09:07:59.000Z,32.1
2024-02-24T09:13:38.177Z,37.1
2024-02-24T09:19:17.520Z,43.8
2024-02-24T09:24:41.014Z,46.4
2024-02-24T09:30:19.737Z,47.6
2024-02-24T09:35:59.282Z,47.6
2024-02-24T09:41:38.547Z,47
2024-02-24T09:47:01.353Z,46.8
2024-02-24T09:52:43.092Z,44.9
2024-02-24T09:58:21.464Z,44.7
2024-02-24T10:03:45.145Z,44.3
2024-02-24T10:09:28.086Z,43.3
2024-02-24T10:14:52.281Z,42.1
2024-02-24T10:20:01.014Z,41.3
2024-02-24T10:25:26.694Z,39.4
2024-02-24T10:31:06.787Z,38.2
2024-02-24T10:36:48.931Z,36
2024-02-24T10:42:59.501Z,35.9
2024-02-24T10:48:52.060Z,36.3
2024-02-24T10:54:32.209Z,35.9
2024-02-24T10:59:56.073Z,35.3
2024-02-24T11:05:35.356Z,34.5
2024-02-24T11:11:00.068Z,33.6
2024-02-24T11:16:49.584Z,32.6
2024-02-24T11:22:17.684Z,31.9
2024-02-24T11:27:56.390Z,31.1
2024-02-24T11:33:35.686Z,30.3
2024-02-24T11:39:15.369Z,29.5
2024-02-24T11:44:55.021Z,29.1
2024-02-24T11:50:35.128Z,28.5
2024-02-24T11:56:16.527Z,27.9
2024-02-24T12:01:55.379Z,27.2
2024-02-24T12:07:04.002Z,26.3
2024-02-24T12:12:46.411Z,25.6
2024-02-24T12:18:25.000Z,25.3
2024-02-24T12:24:05.582Z,25.1
2024-02-24T12:29:44.087Z,25
2024-02-24T12:35:23.968Z,25.1
2024-02-24T12:41:02.480Z,25.1
2024-02-24T12:46:41.585Z,24.9
2024-02-24T12:52:30.191Z,24.6
2024-02-24T12:58:08.822Z,24.4
2024-02-24T13:03:50.495Z,24.1
2024-02-24T13:09:30.443Z,23.8
2024-02-24T13:15:10.026Z,23.6
2024-02-24T13:20:33.808Z,23.3
2024-02-24T13:26:15.307Z,23
2024-02-24T13:31:38.668Z,22.8
2024-02-24T13:37:18.531Z,22.6
2024-02-24T13:42:56.616Z,22.4
2024-02-24T13:48:36.247Z,22.2
2024-02-24T13:54:15.680Z,22.1
2024-02-24T13:59:54.337Z,21.9
2024-02-24T14:05:34.810Z,21.6
2024-02-24T14:11:14.853Z,21.3
2024-02-24T14:16:56.982Z,20.9
2024-02-24T14:22:49.046Z,20.7
2024-02-24T14:28:30.595Z,20.4
2024-02-24T14:34:23.292Z,20.2
2024-02-24T14:40:05.455Z,19.9
2024-02-24T14:45:44.367Z,19.7
2024-02-24T14:51:23.900Z,19.4
2024-02-24T14:56:48.786Z,19.2
2024-02-24T15:02:15.156Z,19.1
2024-02-24T15:08:02.761Z,19
2024-02-24T15:13:48.900Z,18.9
2024-02-24T15:24:53.854Z,18.4
2024-02-24T15:30:37.054Z,18.1
2024-02-24T15:36:16.894Z,17.9
2024-02-24T15:41:55.119Z,17.6
2024-02-24T15:47:34.611Z,17.4
2024-02-24T15:53:13.991Z,17.1
2024-02-24T15:58:52.945Z,16.9
2024-02-24T16:04:34.464Z,16.6
2024-02-24T16:10:16.624Z,16.4
2024-02-24T16:15:54.930Z,16.3
2024-02-24T16:21:37.359Z,16.1
2024-02-24T16:27:16.061Z,15.9
2024-02-24T16:32:42.381Z,15.8
2024-02-24T16:38:22.685Z,15.6
2024-02-24T16:44:01.629Z,15.5
2024-02-24T16:49:42.209Z,15.4
2024-02-24T16:55:06.030Z,15.3
2024-02-24T17:00:45.308Z,15.2
2024-02-24T17:06:24.555Z,15.1
2024-02-24T17:11:48.044Z,15
2024-02-24T17:16:57.562Z,14.9
2024-02-24T17:22:44.496Z,14.8
2024-02-24T17:28:23.768Z,14.8
2024-02-24T17:34:03.302Z,14.6
2024-02-24T17:39:27.240Z,14.5
2024-02-24T17:45:05.848Z,14.4
2024-02-24T17:50:45.319Z,14.4
2024-02-24T17:56:23.871Z,14.4
2024-02-24T18:01:59.312Z,14.5
2024-02-24T18:07:39.331Z,14.4
2024-02-24T18:13:02.188Z,14.4
2024-02-24T18:18:28.300Z,14.4
2024-02-24T18:23:55.564Z,14.4
2024-02-24T18:29:02.737Z,14.3
2024-02-24T18:34:42.635Z,14.3
2024-02-24T18:40:22.150Z,14.3
2024-02-24T18:45:48.818Z,14.3
2024-02-24T18:51:28.798Z,14.2
2024-02-24T18:57:07.608Z,14.2
2024-02-24T19:02:46.458Z,14.2
2024-02-24T19:08:10.129Z,14.1
2024-02-24T19:13:33.884Z,14.1
2024-02-24T19:19:01.569Z,14.2
2024-02-24T19:24:43.837Z,14.1
2024-02-24T19:30:22.556Z,14.2
2024-02-24T19:36:01.952Z,14.3
2024-02-24T19:41:57.770Z,14.3
2024-02-24T19:47:38.536Z,14.3
2024-02-24T19:53:18.323Z,14.3
2024-02-24T19:59:05.121Z,14.3
2024-02-24T20:04:44.199Z,14.2
2024-02-24T20:10:24.426Z,14.2
2024-02-24T20:15:47.550Z,14.1
2024-02-24T20:21:27.624Z,14.1
2024-02-24T20:27:05.870Z,14.1
2024-02-24T20:32:45.768Z,14
2024-02-24T20:38:18.846Z,14.1
2024-02-24T20:43:58.284Z,14.1
2024-02-24T20:49:37.043Z,14.1
2024-02-24T20:55:00.508Z,14.1
2024-02-24T21:00:39.189Z,14
2024-02-24T21:06:20.341Z,14
2024-02-24T21:12:01.295Z,13.9
2024-02-24T21:17:40.321Z,13.9
2024-02-24T21:23:23.540Z,13.8
2024-02-24T21:29:02.613Z,13.8
2024-02-24T21:34:46.825Z,13.8
2024-02-24T21:40:25.154Z,13.8
2024-02-24T21:46:03.581Z,13.8
2024-02-24T21:51:44.000Z,13.8
2024-02-24T21:57:22.826Z,13.7
2024-02-24T22:03:02.192Z,13.6
2024-02-24T22:08:41.851Z,13.6
2024-02-24T22:14:21.113Z,13.6
2024-02-24T22:20:03.878Z,13.5
2024-02-24T22:25:44.711Z,13.4
2024-02-24T22:31:37.769Z,13.4
2024-02-24T22:37:19.846Z,13.4
2024-02-24T22:42:43.078Z,13.3
2024-02-24T22:48:23.258Z,13.2
2024-02-24T22:54:01.900Z,13.2
2024-02-24T22:59:29.341Z,13.1
2024-02-24T23:04:52.994Z,13
2024-02-24T23:10:16.832Z,12.9
2024-02-24T23:15:50.893Z,12.8
2024-02-24T23:21:15.299Z,12.6
2024-02-24T23:26:54.002Z,12.6
2024-02-24T23:32:32.629Z,12.4
2024-02-24T23:38:14.107Z,12.4
2024-02-24T23:43:57.376Z,12.4
2024-02-24T23:49:37.024Z,12.4
2024-02-24T23:55:15.616Z,12.4
